createdAt,value
2023-01-30T00:00:10.830Z,25.95
2023-01-30T00:01:10.788Z,25.95
2023-01-30T00:02:10.769Z,25.95
2023-01-30T00:03:10.704Z,25.94
2023-01-30T00:04:10.704Z,25.94
2023-01-30T00:05:10.726Z,25.92
2023-01-30T00:06:10.630Z,25.94
2023-01-30T00:07:10.592Z,25.92
2023-01-30T00:08:10.547Z,25.92
2023-01-30T00:09:10.550Z,25.92
2023-01-30T00:10:10.478Z,25.91
2023-01-30T00:11:10.464Z,25.91
2023-01-30T00:12:10.434Z,25.92
2023-01-30T00:13:10.405Z,25.89
2023-01-30T00:14:10.385Z,25.91
2023-01-30T00:15:10.320Z,25.94
2023-01-30T00:16:10.455Z,25.92
2023-01-30T00:17:10.279Z,25.91
2023-01-30T00:18:10.263Z,25.91
2023-01-30T00:19:10.269Z,25.89
2023-01-30T00:20:10.209Z,25.92
2023-01-30T00:21:10.168Z,25.91
2023-01-30T00:22:10.148Z,25.89
2023-01-30T00:23:10.140Z,25.89
2023-01-30T00:24:10.311Z,25.88
2023-01-30T00:25:10.243Z,25.89
2023-01-30T00:26:10.134Z,25.87
2023-01-30T00:27:09.984Z,25.88
2023-01-30T00:28:09.941Z,25.88
2023-01-30T00:29:09.965Z,25.89
2023-01-30T00:30:09.898Z,25.87
2023-01-30T00:31:09.880Z,25.85
2023-01-30T00:32:09.849Z,25.87
2023-01-30T00:33:09.808Z,25.87
2023-01-30T00:34:09.795Z,25.88
2023-01-30T00:35:09.795Z,25.87
2023-01-30T00:36:09.704Z,25.89
2023-01-30T00:37:09.693Z,25.87
2023-01-30T00:38:09.645Z,25.85
2023-01-30T00:39:09.632Z,25.84
2023-01-30T00:40:09.586Z,25.83
2023-01-30T00:41:09.566Z,25.85
2023-01-30T00:42:09.521Z,25.85
2023-01-30T00:44:09.440Z,25.84
2023-01-30T00:45:09.398Z,25.83
2023-01-30T00:46:09.410Z,25.85
2023-01-30T00:47:09.366Z,25.84
2023-01-30T00:48:09.315Z,25.85
2023-01-30T00:49:09.263Z,25.83
2023-01-30T00:50:09.241Z,25.83
2023-01-30T00:51:09.190Z,25.85
2023-01-30T00:52:09.175Z,25.84
2023-01-30T00:53:09.127Z,25.81
2023-01-30T00:54:09.107Z,25.83
2023-01-30T00:55:09.126Z,25.81
2023-01-30T00:56:09.040Z,25.83
2023-01-30T00:57:09.013Z,25.84
2023-01-30T00:58:08.956Z,25.84
2023-01-30T00:59:08.932Z,25.81
2023-01-30T01:00:08.936Z,25.81
2023-01-30T01:01:08.888Z,25.81
2023-01-30T01:02:08.895Z,25.81
2023-01-30T01:03:08.861Z,25.81
2023-01-30T01:04:08.804Z,25.81
2023-01-30T01:05:08.744Z,25.80
2023-01-30T01:06:08.691Z,25.81
2023-01-30T01:07:08.681Z,25.81
2023-01-30T01:08:08.623Z,25.81
2023-01-30T01:09:08.612Z,25.78
2023-01-30T01:10:08.647Z,25.78
2023-01-30T01:11:08.535Z,25.78
2023-01-30T01:12:08.546Z,25.77
2023-01-30T01:13:08.499Z,25.78
2023-01-30T01:14:08.477Z,25.77
2023-01-30T01:15:08.459Z,25.80
2023-01-30T01:16:08.400Z,25.78
2023-01-30T01:17:08.354Z,25.78
2023-01-30T01:18:08.334Z,25.78
2023-01-30T01:19:08.295Z,25.78
2023-01-30T01:20:08.280Z,25.74
2023-01-30T01:21:08.239Z,25.77
2023-01-30T01:22:08.246Z,25.77
2023-01-30T01:23:08.199Z,25.78
2023-01-30T01:24:08.158Z,25.76
2023-01-30T01:25:08.154Z,25.74
2023-01-30T01:26:08.112Z,25.76
2023-01-30T01:27:08.057Z,25.77
2023-01-30T01:28:08.031Z,25.77
2023-01-30T01:29:08.009Z,25.76
2023-01-30T01:30:08.002Z,25.74
2023-01-30T01:31:08.083Z,25.74
2023-01-30T01:32:07.978Z,25.74
2023-01-30T01:33:07.897Z,25.74
2023-01-30T01:34:07.854Z,25.76
2023-01-30T01:35:07.861Z,25.77
2023-01-30T01:36:07.835Z,25.74
2023-01-30T01:37:07.771Z,25.76
2023-01-30T01:38:07.786Z,25.74
2023-01-30T01:39:07.741Z,25.71
2023-01-30T01:40:07.736Z,25.74
2023-01-30T01:41:07.665Z,25.73
2023-01-30T01:42:08.073Z,25.73
2023-01-30T01:43:07.619Z,25.69
2023-01-30T01:44:07.561Z,25.71
2023-01-30T01:45:07.533Z,25.73
2023-01-30T01:46:07.541Z,25.73
2023-01-30T01:47:07.490Z,25.70
2023-01-30T01:48:07.480Z,25.71
2023-01-30T01:49:07.424Z,25.71
2023-01-30T01:50:07.408Z,25.71
2023-01-30T01:51:07.408Z,25.71
2023-01-30T01:52:07.353Z,25.71
2023-01-30T01:53:07.324Z,25.73
2023-01-30T01:54:07.328Z,25.73
2023-01-30T01:55:07.290Z,25.70
2023-01-30T01:56:07.239Z,25.69
2023-01-30T01:57:07.235Z,25.71
2023-01-30T01:58:07.185Z,25.70
2023-01-30T01:59:07.162Z,25.71
2023-01-30T02:00:07.148Z,25.70
2023-01-30T02:01:07.160Z,25.69
2023-01-30T02:02:07.084Z,25.70
2023-01-30T02:03:07.082Z,25.70
2023-01-30T02:04:07.023Z,25.67
2023-01-30T02:05:07.057Z,25.71
2023-01-30T02:06:06.977Z,25.69
2023-01-30T02:07:06.940Z,25.69
2023-01-30T02:08:06.896Z,25.69
2023-01-30T02:09:06.862Z,25.67
2023-01-30T02:10:06.870Z,25.67
2023-01-30T02:11:06.833Z,25.69
2023-01-30T02:12:06.796Z,25.67
2023-01-30T02:13:06.765Z,25.67
2023-01-30T02:14:06.737Z,25.67
2023-01-30T02:15:06.683Z,25.66
2023-01-30T02:16:06.682Z,25.66
2023-01-30T02:17:06.657Z,25.64
2023-01-30T02:18:06.592Z,25.67
2023-01-30T02:19:06.557Z,25.66
2023-01-30T02:20:06.530Z,25.64
2023-01-30T02:21:06.518Z,25.64
2023-01-30T02:22:06.466Z,25.63
2023-01-30T02:23:06.439Z,25.66
2023-01-30T02:24:06.396Z,25.64
2023-01-30T02:25:06.387Z,25.63
2023-01-30T02:26:06.334Z,25.66
2023-01-30T02:27:06.271Z,25.64
2023-01-30T02:28:06.248Z,25.63
2023-01-30T02:29:06.212Z,25.66
2023-01-30T02:30:06.171Z,25.63
2023-01-30T02:31:06.212Z,25.66
2023-01-30T02:32:06.131Z,25.64
2023-01-30T02:33:06.077Z,25.64
2023-01-30T02:34:06.065Z,25.63
2023-01-30T02:35:06.024Z,25.63
2023-01-30T02:36:06.010Z,25.63
2023-01-30T02:37:05.987Z,25.63
2023-01-30T02:38:05.969Z,25.59
2023-01-30T02:39:05.906Z,25.54
2023-01-30T02:40:05.882Z,25.53
2023-01-30T02:41:05.867Z,25.47
2023-01-30T02:42:05.874Z,25.47
2023-01-30T02:43:05.839Z,25.42
2023-01-30T02:44:05.750Z,25.36
2023-01-30T02:45:05.752Z,25.33
2023-01-30T02:46:05.742Z,25.30
2023-01-30T02:47:05.713Z,25.32
2023-01-30T02:48:05.672Z,25.33
2023-01-30T02:49:05.628Z,25.30
2023-01-30T02:50:05.662Z,25.28
2023-01-30T02:51:05.604Z,25.26
2023-01-30T02:52:05.567Z,25.21
2023-01-30T02:53:05.525Z,25.19
2023-01-30T02:54:05.490Z,25.21
2023-01-30T02:55:05.486Z,25.21
2023-01-30T02:56:05.433Z,25.21
2023-01-30T02:57:05.476Z,25.14
2023-01-30T02:58:05.408Z,25.15
2023-01-30T05:36:02.069Z,24.33
2023-01-30T05:37:02.028Z,24.36
2023-01-30T05:38:02.012Z,24.36
2023-01-30T05:39:02.002Z,24.33
2023-01-30T05:40:01.966Z,24.32
2023-01-30T05:41:01.945Z,24.32
2023-01-30T05:42:01.921Z,24.30
2023-01-30T05:43:01.904Z,24.33
2023-01-30T05:44:01.896Z,24.33
2023-01-30T05:45:01.919Z,24.33
2023-01-30T05:46:01.863Z,24.35
2023-01-30T05:47:01.845Z,24.32
2023-01-30T05:48:01.907Z,24.33
2023-01-30T05:49:01.804Z,24.30
2023-01-30T05:50:01.796Z,24.26
2023-01-30T05:51:01.787Z,24.28
2023-01-30T05:52:01.763Z,24.30
2023-01-30T05:53:01.735Z,24.30
2023-01-30T05:54:01.742Z,24.28
2023-01-30T05:55:01.700Z,24.30
2023-01-30T05:56:01.649Z,24.26
2023-01-30T05:57:01.649Z,24.25
2023-01-30T05:58:01.643Z,24.28
2023-01-30T05:59:01.631Z,24.28
2023-01-30T07:58:59.092Z,25.73
2023-01-30T08:00:59.172Z,25.73
2023-01-30T08:01:59.111Z,25.69
2023-01-30T08:02:59.015Z,25.70
2023-01-30T08:03:59.147Z,25.70
2023-01-30T08:04:58.967Z,25.71
2023-01-30T08:05:58.890Z,25.73
2023-01-30T08:06:58.877Z,25.73
2023-01-30T08:07:58.774Z,25.73
2023-01-30T08:08:58.764Z,25.73
2023-01-30T08:09:58.757Z,25.73
2023-01-30T08:10:58.727Z,25.74
2023-01-30T08:11:58.677Z,25.71
2023-01-30T08:12:58.672Z,25.69
2023-01-30T08:13:58.609Z,25.71
2023-01-30T08:14:58.580Z,25.69
2023-01-30T08:15:58.522Z,25.73
2023-01-30T08:16:58.531Z,25.73
2023-01-30T08:17:58.532Z,25.73
2023-01-30T08:18:58.446Z,25.71
2023-01-30T08:19:58.396Z,25.74
2023-01-30T08:20:58.460Z,25.78
2023-01-30T08:21:58.390Z,25.74
2023-01-30T08:22:58.308Z,25.73
2023-01-30T08:24:00.194Z,25.70
2023-01-30T08:24:58.230Z,25.73
2023-01-30T08:25:58.289Z,25.73
2023-01-30T08:26:58.203Z,25.71
2023-01-30T08:27:58.207Z,25.74
2023-01-30T08:28:58.172Z,25.73
2023-01-30T08:29:58.106Z,25.74
2023-01-30T08:30:58.184Z,25.76
2023-01-30T08:31:58.213Z,25.73
2023-01-30T08:32:58.087Z,25.78
2023-01-30T08:33:57.994Z,25.77
2023-01-30T08:34:58.051Z,25.81
2023-01-30T08:35:57.948Z,25.78
2023-01-30T08:36:57.841Z,25.81
2023-01-30T08:37:57.963Z,25.87
2023-01-30T08:38:57.973Z,25.85
2023-01-30T08:39:58.187Z,25.92
2023-01-30T08:40:57.879Z,25.97
2023-01-30T08:41:57.707Z,25.99
2023-01-30T08:42:57.647Z,26.05
2023-01-30T08:43:57.691Z,26.08
2023-01-30T08:44:57.584Z,26.09
2023-01-30T08:45:57.534Z,26.12
2023-01-30T08:46:57.549Z,26.15
2023-01-30T08:47:57.458Z,26.16
2023-01-30T08:48:57.413Z,26.19
2023-01-30T08:49:57.372Z,26.21
2023-01-30T08:50:57.328Z,26.23
2023-01-30T08:51:57.353Z,26.23
2023-01-30T08:52:57.284Z,26.28
2023-01-30T08:53:57.239Z,26.31
2023-01-30T08:54:57.195Z,26.32
2023-01-30T08:55:57.192Z,26.33
2023-01-30T08:56:57.148Z,26.38
2023-01-30T08:57:57.113Z,26.42
2023-01-30T08:58:57.065Z,26.44
2023-01-30T08:59:57.171Z,26.43
2023-01-30T09:00:57.037Z,26.39
2023-01-30T09:01:57.083Z,26.33
2023-01-30T09:02:57.048Z,26.29
2023-01-30T09:03:56.935Z,26.25
2023-01-30T09:04:56.900Z,26.19
2023-01-30T09:05:56.863Z,26.21
2023-01-30T09:06:56.816Z,26.19
2023-01-30T09:07:56.828Z,26.14
2023-01-30T09:08:56.777Z,26.15
2023-01-30T09:09:56.728Z,26.16
2023-01-30T09:10:56.723Z,26.21
2023-01-30T09:11:56.687Z,26.21
2023-01-30T09:12:56.654Z,26.25
2023-01-30T09:13:56.684Z,26.28
2023-01-30T09:14:56.564Z,26.32
2023-01-30T09:15:56.564Z,26.33
2023-01-30T09:16:56.539Z,26.40
2023-01-30T09:17:56.580Z,26.44
2023-01-30T09:18:56.452Z,26.46
2023-01-30T09:19:56.435Z,26.54
2023-01-30T09:20:56.372Z,26.53
2023-01-30T09:21:56.328Z,26.57
2023-01-30T09:22:56.348Z,26.61
2023-01-30T09:23:56.266Z,26.61
2023-01-30T09:24:56.205Z,26.61
2023-01-30T09:25:56.154Z,26.64
2023-01-30T09:26:56.125Z,26.67
2023-01-30T09:27:56.122Z,26.71
2023-01-30T09:28:56.105Z,26.71
2023-01-30T09:29:56.109Z,26.67
2023-01-30T09:30:56.094Z,26.71
2023-01-30T09:31:56.006Z,26.73
2023-01-30T09:32:55.973Z,26.76
2023-01-30T09:33:55.974Z,26.77
2023-01-30T09:34:56.045Z,26.80
2023-01-30T09:35:55.861Z,26.83
2023-01-30T09:36:55.839Z,26.81
2023-01-30T09:37:56.136Z,26.84
2023-01-30T09:38:55.739Z,26.88
2023-01-30T09:39:55.677Z,26.90
2023-01-30T09:40:55.804Z,26.90
2023-01-30T09:41:55.659Z,26.91
2023-01-30T09:42:55.615Z,26.93
2023-01-30T09:43:55.570Z,26.95
2023-01-30T09:44:55.503Z,26.95
2023-01-30T09:45:55.575Z,26.98
2023-01-30T09:46:55.538Z,26.97
2023-01-30T09:47:55.421Z,26.93
2023-01-30T10:17:54.291Z,26.44
2023-01-30T10:20:42.331Z,26.42
2023-01-30T10:22:42.231Z,26.42
2023-01-30T10:23:42.128Z,26.40
2023-01-30T10:24:42.166Z,26.42
2023-01-30T10:25:42.105Z,26.44
2023-01-30T10:26:42.078Z,26.44
2023-01-30T10:27:42.009Z,26.43
2023-01-30T10:28:43.100Z,26.44
2023-01-30T10:29:41.914Z,26.42
2023-01-30T10:30:41.937Z,26.42
2023-01-30T10:31:42.085Z,26.40
2023-01-30T10:32:41.878Z,26.38
2023-01-30T10:33:41.792Z,26.39
2023-01-30T10:34:41.747Z,26.38
2023-01-30T10:35:41.706Z,26.33
2023-01-30T10:36:41.669Z,26.31
2023-01-30T10:37:41.714Z,26.31
2023-01-30T10:38:41.683Z,26.28
2023-01-30T10:39:54.321Z,26.28
2023-01-30T10:41:41.486Z,26.19
2023-01-30T10:42:41.454Z,26.18
2023-01-30T10:43:41.612Z,26.23
2023-01-30T10:45:41.668Z,26.18
2023-01-30T10:46:41.398Z,26.18
2023-01-30T10:47:47.160Z,26.18
2023-01-30T10:49:41.280Z,26.14
2023-01-30T10:50:41.260Z,26.12
2023-01-30T10:51:41.261Z,26.11
2023-01-30T10:52:41.174Z,26.04
2023-01-30T10:53:41.189Z,26.06
2023-01-30T10:54:41.111Z,26.04
2023-01-30T10:55:41.087Z,26.04
2023-01-30T10:56:41.070Z,26.04
2023-01-30T10:57:41.040Z,26.02
2023-01-30T10:58:40.990Z,25.98
2023-01-30T10:59:41.018Z,25.97
2023-01-30T11:00:40.962Z,25.95
2023-01-30T11:01:40.916Z,25.94
2023-01-30T11:02:40.907Z,25.92
2023-01-30T11:03:40.849Z,25.91
2023-01-30T11:04:40.828Z,25.91
2023-01-30T11:05:40.863Z,25.92
2023-01-30T11:06:40.731Z,25.88
2023-01-30T11:07:40.691Z,25.88
2023-01-30T11:08:40.684Z,25.83
2023-01-30T11:09:40.708Z,25.83
2023-01-30T11:10:40.641Z,25.83
2023-01-30T11:11:40.594Z,25.80
2023-01-30T11:12:40.587Z,25.81
2023-01-30T11:13:40.559Z,25.81
2023-01-30T11:14:41.971Z,25.80
2023-01-30T11:15:40.461Z,25.80
2023-01-30T11:16:40.423Z,25.80
2023-01-30T11:17:40.388Z,25.80
2023-01-30T11:19:42.301Z,25.83
2023-01-30T11:20:40.251Z,25.83
2023-01-30T11:21:44.367Z,25.84
2023-01-30T11:22:40.202Z,25.83
2023-01-30T11:23:40.167Z,25.87
2023-01-30T11:24:40.213Z,25.89
2023-01-30T11:25:40.083Z,25.89
2023-01-30T11:26:47.219Z,25.91
2023-01-30T11:27:41.067Z,25.91
2023-01-30T11:28:39.996Z,25.91
2023-01-30T11:29:39.986Z,25.92
2023-01-30T11:30:39.968Z,25.91
2023-01-30T11:31:41.827Z,25.91
2023-01-30T11:32:40.005Z,25.89
2023-01-30T11:33:39.839Z,25.91
2023-01-30T11:34:39.854Z,25.89
2023-01-30T11:35:39.811Z,25.95
2023-01-30T11:36:39.743Z,25.94
2023-01-30T11:37:39.701Z,25.92
2023-01-30T11:38:39.657Z,25.95
2023-01-30T11:39:39.651Z,25.98
2023-01-30T11:40:39.568Z,25.99
2023-01-30T11:41:39.524Z,26.02
2023-01-30T11:42:40.870Z,26.04
2023-01-30T11:43:39.468Z,26.06
2023-01-30T11:44:39.467Z,26.05
2023-01-30T11:45:39.662Z,26.08
2023-01-30T11:46:39.355Z,26.09
2023-01-30T11:47:41.414Z,26.08
2023-01-30T11:49:04.387Z,26.11
2023-01-30T11:50:40.433Z,26.16
2023-01-30T11:51:39.169Z,26.18
2023-01-30T11:52:39.139Z,26.16
2023-01-30T11:53:39.148Z,26.18
2023-01-30T11:54:39.100Z,26.22
2023-01-30T11:55:39.666Z,26.21
2023-01-30T11:56:38.996Z,26.19
2023-01-30T11:57:38.999Z,26.25
2023-01-30T11:58:38.954Z,26.23
2023-01-30T11:59:38.909Z,26.26
2023-01-30T12:00:38.932Z,26.26
2023-01-30T12:01:38.852Z,26.28
2023-01-30T12:02:38.786Z,26.28
2023-01-30T12:03:38.765Z,26.29
2023-01-30T12:04:38.712Z,26.31
2023-01-30T12:05:38.691Z,26.31
2023-01-30T12:06:38.643Z,26.32
2023-01-30T12:07:38.647Z,26.32
2023-01-30T12:08:42.681Z,26.32
2023-01-30T12:09:40.773Z,26.31
2023-01-30T12:10:38.673Z,26.33
2023-01-30T12:11:38.835Z,26.35
2023-01-30T12:12:38.585Z,26.35
2023-01-30T12:13:38.539Z,26.35
2023-01-30T12:14:38.498Z,26.35
2023-01-30T12:16:38.450Z,26.35
2023-01-30T12:17:38.404Z,26.38
2023-01-30T12:18:38.361Z,26.39
2023-01-30T12:19:38.323Z,26.40
2023-01-30T12:20:38.281Z,26.39
2023-01-30T12:21:38.229Z,26.42
2023-01-30T12:22:38.211Z,26.43
2023-01-30T12:23:38.158Z,26.42
2023-01-30T12:24:38.141Z,26.43
2023-01-30T12:25:38.115Z,26.44
2023-01-30T12:26:38.075Z,26.42
2023-01-30T12:27:38.016Z,26.56
2023-01-30T12:28:37.974Z,26.68
2023-01-30T12:30:39.514Z,26.84
2023-01-30T12:32:37.806Z,26.98
2023-01-30T12:33:37.759Z,27.02
2023-01-30T13:42:34.635Z,28.42
2023-01-30T13:43:34.513Z,28.43
2023-01-30T13:44:34.941Z,28.47
2023-01-30T13:45:34.420Z,28.49
2023-01-30T13:46:34.429Z,28.50
2023-01-30T13:47:34.340Z,28.52
2023-01-30T13:48:34.306Z,28.52
2023-01-30T13:49:34.234Z,28.53
2023-01-30T13:50:34.195Z,28.56
2023-01-30T13:51:34.221Z,28.54
2023-01-30T13:52:34.111Z,28.60
2023-01-30T13:53:33.996Z,28.56
2023-01-30T13:54:33.950Z,28.59
2023-01-30T13:55:33.920Z,28.60
2023-01-30T13:56:41.291Z,28.61
2023-01-30T13:57:34.843Z,28.61
2023-01-30T13:58:33.730Z,28.63
2023-01-30T13:59:33.725Z,28.63
2023-01-30T14:00:33.673Z,28.64
2023-01-30T14:01:33.665Z,28.67
2023-01-30T14:02:33.571Z,28.66
2023-01-30T14:03:33.503Z,28.69
2023-01-30T14:04:33.450Z,28.69
2023-01-30T14:05:43.421Z,28.69
2023-01-30T14:06:34.341Z,28.71
2023-01-30T14:07:33.280Z,28.71
2023-01-30T14:08:33.213Z,28.71
2023-01-30T14:09:33.185Z,28.74
2023-01-30T14:10:33.105Z,28.73
2023-01-30T14:11:34.241Z,28.73
2023-01-30T14:12:33.106Z,28.74
2023-01-30T14:13:32.972Z,28.74
2023-01-30T14:14:32.893Z,28.73
2023-01-30T14:15:32.802Z,28.75
2023-01-30T14:16:32.843Z,28.75
2023-01-30T14:17:32.734Z,28.74
2023-01-30T14:18:32.687Z,28.75
2023-01-30T14:19:32.625Z,28.75
2023-01-30T14:20:32.546Z,28.77
2023-01-30T14:21:32.537Z,28.77
2023-01-30T14:22:32.633Z,28.78
2023-01-30T14:23:32.380Z,28.78
2023-01-30T14:24:32.357Z,28.77
2023-01-30T14:25:32.266Z,28.77
2023-01-30T14:26:32.251Z,28.78
2023-01-30T14:27:32.227Z,28.82
2023-01-30T14:28:32.119Z,28.80
2023-01-30T14:29:32.079Z,28.77
2023-01-30T14:30:32.081Z,28.80
2023-01-30T14:31:32.026Z,28.78
2023-01-30T14:32:32.136Z,28.78
2023-01-30T14:33:31.866Z,28.80
2023-01-30T14:34:31.797Z,28.78
2023-01-30T14:35:31.750Z,28.75
2023-01-30T14:36:31.718Z,28.78
2023-01-30T14:37:31.683Z,28.77
2023-01-30T14:38:31.627Z,28.78
2023-01-30T14:39:31.542Z,28.77
2023-01-30T14:40:31.503Z,28.77
2023-01-30T14:41:31.456Z,28.74
2023-01-30T14:42:31.481Z,28.73
2023-01-30T14:43:31.344Z,28.70
2023-01-30T14:44:31.289Z,28.70
2023-01-30T14:45:31.263Z,28.67
2023-01-30T14:46:31.256Z,28.64
2023-01-30T14:47:36.100Z,28.60
2023-01-30T14:48:32.223Z,28.57
2023-01-30T14:49:31.054Z,28.54
2023-01-30T14:50:30.982Z,28.53
2023-01-30T14:51:30.962Z,28.50
2023-01-30T14:52:30.940Z,28.46
2023-01-30T14:53:30.837Z,28.44
2023-01-30T14:54:41.224Z,28.43
2023-01-30T14:55:31.708Z,28.40
2023-01-30T14:56:30.679Z,28.38
2023-01-30T14:57:30.658Z,28.36
2023-01-30T14:58:30.623Z,28.35
2023-01-30T14:59:30.551Z,28.29
2023-01-30T15:00:30.489Z,28.29
2023-01-30T15:02:30.547Z,28.25
